createdAt,value
2023-01-20T00:01:22.105Z,100287.19
2023-01-20T00:03:48.911Z,100290.69
2023-01-20T00:06:15.429Z,100288.97
2023-01-20T00:08:41.975Z,100288.97
2023-01-20T00:11:11.549Z,100290.72
2023-01-20T00:13:38.784Z,100293.31
2023-01-20T00:16:07.580Z,100293.31
2023-01-20T00:18:35.058Z,100296.78
2023-01-20T00:21:04.278Z,100292.50
2023-01-20T00:23:30.902Z,100298.53
2023-01-20T00:25:57.450Z,100301.13
2023-01-20T00:28:23.874Z,100308.84
2023-01-20T00:30:50.408Z,100303.69
2023-01-20T00:33:16.883Z,100307.13
2023-01-20T00:35:44.391Z,100310.56
2023-01-20T00:38:10.785Z,100308.84
2023-01-20T00:40:37.183Z,100313.16
2023-01-20T00:43:03.608Z,100312.31
2023-01-20T00:45:30.044Z,100314.94
2023-01-20T00:47:56.472Z,100317.47
2023-01-20T00:50:22.904Z,100317.47
2023-01-20T00:52:49.335Z,100324.34
2023-01-20T00:55:16.046Z,100319.25
2023-01-20T00:57:42.616Z,100320.13
2023-01-20T01:00:09.634Z,100323.56
2023-01-20T01:02:39.974Z,100323.56
2023-01-20T01:05:06.665Z,100314.09
2023-01-20T01:07:33.110Z,100319.19
2023-01-20T01:09:59.546Z,100327.78
2023-01-20T01:12:26.016Z,100337.22
2023-01-20T01:14:52.472Z,100333.78
2023-01-20T01:17:18.969Z,100338.06
2023-01-20T01:19:45.408Z,100332.91
2023-01-20T01:22:11.852Z,100344.06
2023-01-20T01:24:38.280Z,100342.34
2023-01-20T01:27:04.848Z,100343.97
2023-01-20T01:29:31.292Z,100344.81
2023-01-20T01:31:57.779Z,100344.75
2023-01-20T01:34:24.309Z,100361.03
2023-01-20T01:36:50.777Z,100370.47
2023-01-20T01:39:17.192Z,100373.06
2023-01-20T01:41:43.622Z,100366.16
2023-01-20T01:44:12.862Z,100374.75
2023-01-20T01:46:41.157Z,100371.31
2023-01-20T01:49:17.735Z,100376.50
2023-01-20T01:51:58.238Z,100373.09
2023-01-20T01:54:29.555Z,100379.03
2023-01-20T01:56:56.157Z,100380.78
2023-01-20T01:59:22.799Z,100372.19
2023-01-20T02:01:51.605Z,100377.34
2023-01-20T02:04:21.845Z,100377.31
2023-01-20T02:06:52.356Z,100379.84
2023-01-20T02:09:19.809Z,100379.03
2023-01-20T02:11:52.091Z,100379.03
2023-01-20T02:14:26.744Z,100385.00
2023-01-20T02:16:53.089Z,100395.38
2023-01-20T02:19:46.936Z,100396.22
2023-01-20T02:22:31.072Z,100388.41
2023-01-20T02:25:14.425Z,100395.31
2023-01-20T02:28:09.645Z,100391.03
2023-01-20T02:30:57.922Z,100391.03
2023-01-20T02:33:38.407Z,100397.91
2023-01-20T02:36:13.199Z,100400.53
2023-01-20T02:38:56.278Z,100399.69
2023-01-20T02:41:28.619Z,100406.56
2023-01-20T02:44:18.014Z,100401.38
2023-01-20T02:47:04.184Z,100410.84
2023-01-20T02:49:37.985Z,100402.25
2023-01-20T02:52:17.237Z,100400.47
2023-01-20T02:54:48.872Z,100406.47
2023-01-20T02:57:23.854Z,100402.13
2023-01-20T02:59:54.244Z,100406.41
2023-01-20T03:02:25.610Z,100413.31
2023-01-20T03:05:01.314Z,100413.28
2023-01-20T03:07:31.301Z,100411.56
2023-01-20T03:10:02.733Z,100417.56
2023-01-20T03:12:59.298Z,100415.03
2023-01-20T03:15:35.468Z,100410.72
2023-01-20T03:18:01.996Z,100412.44
2023-01-20T03:20:28.475Z,100418.44
2023-01-20T03:22:54.931Z,100414.16
2023-01-20T03:25:22.447Z,100415.88
2023-01-20T03:27:48.905Z,100419.31
2023-01-20T03:30:16.519Z,100421.88
2023-01-20T03:32:47.215Z,100429.53
2023-01-20T03:35:16.503Z,100428.75
2023-01-20T03:37:44.543Z,100430.41
2023-01-20T03:40:12.884Z,100432.97
2023-01-20T03:42:49.017Z,100438.19
2023-01-20T03:45:24.737Z,100427.91
2023-01-20T03:48:09.404Z,100439.06
2023-01-20T03:50:38.678Z,100444.25
2023-01-20T03:53:23.990Z,100451.13
2023-01-20T03:56:00.444Z,100452.00
2023-01-20T03:58:37.215Z,100445.97
2023-01-20T04:01:17.769Z,100449.41
2023-01-20T04:03:48.517Z,100443.41
2023-01-20T04:06:16.843Z,100454.66
2023-01-20T04:08:55.755Z,100455.47
2023-01-20T04:11:23.248Z,100448.63
2023-01-20T04:13:50.886Z,100458.97
2023-01-20T04:16:19.151Z,100459.00
2023-01-20T04:18:48.687Z,100458.94
2023-01-20T04:21:28.326Z,100460.69
2023-01-20T04:24:02.847Z,100457.28
2023-01-20T04:26:29.343Z,100454.69
2023-01-20T04:28:55.763Z,100461.59
2023-01-20T04:31:30.500Z,100460.78
2023-01-20T04:33:57.703Z,100466.81
2023-01-20T04:36:25.201Z,100470.28
2023-01-20T04:38:51.769Z,100473.66
2023-01-20T04:41:18.256Z,100463.31
2023-01-20T04:43:45.303Z,100466.75
2023-01-20T04:46:15.830Z,100472.78
2023-01-20T04:48:44.552Z,100473.69
2023-01-20T04:51:10.990Z,100466.84
2023-01-20T04:53:37.413Z,100472.00
2023-01-20T04:56:04.017Z,100469.44
2023-01-20T04:58:30.448Z,100471.16
2023-01-20T05:00:56.884Z,100477.19
2023-01-20T05:03:23.431Z,100475.53
2023-01-20T05:05:56.085Z,100480.69
2023-01-20T05:08:22.562Z,100482.41
2023-01-20T05:10:49.037Z,100482.41
2023-01-20T05:13:15.492Z,100472.13
2023-01-20T05:15:43.813Z,100488.44
2023-01-20T05:18:10.423Z,100489.22
2023-01-20T05:20:36.880Z,100495.19
2023-01-20T05:23:03.681Z,100498.63
2023-01-20T05:25:30.239Z,100500.34
2023-01-20T05:27:58.108Z,100503.75
2023-01-20T05:30:24.558Z,100505.50
2023-01-20T05:32:51.939Z,100508.09
2023-01-20T05:35:18.563Z,100511.50
2023-01-20T05:37:45.024Z,100511.44
2023-01-20T05:40:11.922Z,100514.06
2023-01-20T05:42:38.731Z,100506.28
2023-01-20T05:45:05.925Z,100508.84
2023-01-20T05:47:32.406Z,100517.50
2023-01-20T05:49:58.822Z,100513.13
2023-01-20T05:52:25.283Z,100517.38
2023-01-20T05:54:51.781Z,100520.72
2023-01-20T05:57:18.372Z,100518.97
2023-01-20T05:59:48.444Z,100528.44
2023-01-20T06:02:18.613Z,100525.03
2023-01-20T06:04:46.330Z,100527.56
2023-01-20T06:07:12.854Z,100542.22
2023-01-20T06:09:39.387Z,100544.75
2023-01-20T06:12:06.367Z,100543.00
2023-01-20T06:14:32.843Z,100548.19
2023-01-20T06:16:59.297Z,100549.88
2023-01-20T06:19:25.764Z,100549.94
2023-01-20T06:21:53.473Z,100550.78
2023-01-20T06:24:20.048Z,100546.50
2023-01-20T06:26:46.491Z,100556.81
2023-01-20T06:29:12.972Z,100553.38
2023-01-20T06:31:39.770Z,100561.09
2023-01-20T06:34:06.263Z,100553.34
2023-01-20T06:36:32.711Z,100553.38
2023-01-20T06:38:59.148Z,100555.97
2023-01-20T06:41:25.957Z,100551.63
2023-01-20T06:43:52.462Z,100562.78
2023-01-20T06:46:19.068Z,100563.66
2023-01-20T06:48:46.441Z,100562.84
2023-01-20T06:51:15.562Z,100562.84
2023-01-20T06:53:42.553Z,100568.00
2023-01-20T06:56:13.975Z,100566.28
2023-01-20T06:58:41.242Z,100577.53
2023-01-20T07:01:11.542Z,100580.09
2023-01-20T07:03:38.223Z,100580.97
2023-01-20T07:06:14.058Z,100582.69
2023-01-20T07:08:40.507Z,100589.59
2023-01-20T07:11:06.926Z,100589.63
2023-01-20T07:13:33.334Z,100593.06
2023-01-20T07:15:59.784Z,100587.09
2023-01-20T07:18:26.217Z,100598.31
2023-01-20T07:20:56.749Z,100593.19
2023-01-20T07:23:23.950Z,100587.19
2023-01-20T07:26:16.463Z,100591.56
2023-01-20T07:28:43.096Z,100591.56
2023-01-20T07:31:12.661Z,100596.72
2023-01-20T07:33:39.418Z,100595.84
2023-01-20T07:36:07.752Z,100609.63
2023-01-20T07:38:35.016Z,100603.63
2023-01-20T07:41:05.498Z,100608.78
2023-01-20T07:43:32.309Z,100610.50
2023-01-20T07:46:01.437Z,100615.66
2023-01-20T07:48:30.403Z,100616.50
2023-01-20T07:51:02.586Z,100628.50
2023-01-20T07:53:30.086Z,100628.53
2023-01-20T07:55:56.568Z,100631.97
2023-01-20T07:58:23.032Z,100635.41
2023-01-20T08:00:49.460Z,100633.69
2023-01-20T08:03:16.322Z,100641.41
2023-01-20T08:05:42.914Z,100637.97
2023-01-20T08:08:09.356Z,100644.03
2023-01-20T08:10:35.849Z,100643.16
2023-01-20T08:13:02.310Z,100642.34
2023-01-20T08:15:28.801Z,100650.06
2023-01-20T08:17:56.274Z,100646.63
2023-01-20T08:20:23.046Z,100650.06
2023-01-20T08:22:49.533Z,100652.63
2023-01-20T08:25:16.460Z,100650.91
2023-01-20T08:27:43.229Z,100658.75
2023-01-20T08:30:10.315Z,100662.22
2023-01-20T08:32:36.746Z,100669.97
2023-01-20T08:35:03.351Z,100670.81
2023-01-20T08:37:29.785Z,100673.41
2023-01-20T08:39:56.300Z,100675.13
2023-01-20T08:42:22.895Z,100676.06
2023-01-20T08:44:52.664Z,100679.53
2023-01-20T08:47:19.112Z,100680.41
2023-01-20T08:49:45.665Z,100682.13
2023-01-20T08:52:12.354Z,100681.28
2023-01-20T08:54:38.887Z,100684.75
2023-01-20T08:57:05.343Z,100684.75
2023-01-20T08:59:31.745Z,100684.75
2023-01-20T09:01:58.173Z,100685.69
2023-01-20T09:04:24.657Z,100690.03
2023-01-20T09:06:52.661Z,100689.19
2023-01-20T09:09:21.085Z,100683.19
2023-01-20T09:11:51.322Z,100688.41
2023-01-20T09:14:22.629Z,100691.03
2023-01-20T09:16:49.299Z,100689.22
2023-01-20T09:19:16.522Z,100695.22
2023-01-20T09:21:44.041Z,100698.66
2023-01-20T09:24:10.537Z,100694.38
2023-01-20T09:26:41.629Z,100695.22
2023-01-20T09:29:11.964Z,100705.53
2023-01-20T09:31:44.495Z,100702.97
2023-01-20T09:34:22.453Z,100705.53
2023-01-20T09:36:53.896Z,100700.38
2023-01-20T09:39:39.596Z,100695.22
2023-01-20T09:42:42.390Z,100696.16
2023-01-20T09:45:26.108Z,100695.34
2023-01-20T09:48:03.557Z,100706.50
2023-01-20T09:51:11.957Z,100706.50
2023-01-20T09:53:38.335Z,100709.06
2023-01-20T09:56:11.744Z,100711.69
2023-01-20T09:58:46.548Z,100707.38
2023-01-20T10:01:30.575Z,100710.00
2023-01-20T10:04:12.437Z,100711.72
2023-01-20T10:06:44.347Z,100708.38
2023-01-20T10:09:49.744Z,100707.53
2023-01-20T10:12:30.727Z,100709.22
2023-01-20T10:15:13.120Z,100704.06
2023-01-20T10:17:46.009Z,100710.13
2023-01-20T10:20:28.087Z,100708.41
2023-01-20T10:23:17.790Z,100716.25
2023-01-20T10:25:50.949Z,100713.69
2023-01-20T10:28:28.081Z,100710.22
2023-01-20T10:30:58.191Z,100708.50
2023-01-20T10:33:41.905Z,100698.22
2023-01-20T10:36:14.664Z,100698.31
2023-01-20T10:39:04.808Z,100695.75
2023-01-20T10:41:31.252Z,100701.78
2023-01-20T10:43:59.600Z,100707.81
2023-01-20T10:46:51.583Z,100698.41
2023-01-20T10:49:40.036Z,100695.94
2023-01-20T10:52:25.255Z,100695.97
2023-01-20T10:55:24.005Z,100699.38
2023-01-20T10:57:56.434Z,100700.22
2023-01-20T11:00:26.884Z,100699.34
2023-01-20T11:02:54.105Z,100696.78
2023-01-20T11:05:24.247Z,100701.06
2023-01-20T11:07:53.825Z,100701.91
2023-01-20T11:10:32.511Z,100695.81
2023-01-20T11:13:02.260Z,100695.81
2023-01-20T11:15:43.219Z,100696.75
2023-01-20T11:18:15.964Z,100697.66
2023-01-20T11:20:46.454Z,100691.66
2023-01-20T11:23:27.136Z,100693.38
2023-01-20T11:25:56.610Z,100694.28
2023-01-20T11:28:24.496Z,100700.34
2023-01-20T11:30:56.247Z,100696.03
2023-01-20T11:33:26.349Z,100692.59
2023-01-20T11:36:05.012Z,100697.72
2023-01-20T11:38:41.914Z,100695.16
2023-01-20T11:41:22.004Z,100702.03
2023-01-20T11:43:49.970Z,100691.72
2023-01-20T11:46:42.865Z,100689.97
2023-01-20T11:49:22.381Z,100689.13
2023-01-20T11:51:57.288Z,100688.34
2023-01-20T11:54:25.067Z,100697.00
2023-01-20T11:56:59.732Z,100692.72
2023-01-20T11:59:28.490Z,100679.81
2023-01-20T12:02:01.506Z,100686.72
2023-01-20T12:04:36.961Z,100685.88
2023-01-20T12:07:09.321Z,100688.47
2023-01-20T12:09:44.297Z,100684.19
2023-01-20T12:12:41.609Z,100683.28
2023-01-20T12:15:17.288Z,100692.78
2023-01-20T12:17:56.162Z,100691.91
2023-01-20T12:20:54.477Z,100687.59
2023-01-20T12:23:45.894Z,100685.03
2023-01-20T12:26:21.740Z,100680.78
2023-01-20T12:28:54.341Z,100682.50
2023-01-20T12:31:24.014Z,100690.25
2023-01-20T12:33:54.639Z,100691.13
2023-01-20T12:36:45.682Z,100693.72
2023-01-20T12:39:15.120Z,100685.13
2023-01-20T12:42:05.273Z,100692.03
2023-01-20T12:44:43.894Z,100690.31
2023-01-20T12:47:17.377Z,100691.25
2023-01-20T12:49:51.035Z,100690.31
2023-01-20T12:52:33.019Z,100693.78
2023-01-20T12:55:09.851Z,100690.31
2023-01-20T12:58:05.586Z,100691.25
2023-01-20T13:00:48.385Z,100694.69
2023-01-20T13:03:44.504Z,100704.94
2023-01-20T13:06:43.039Z,100699.78
2023-01-20T13:09:21.545Z,100702.38
2023-01-20T13:12:17.254Z,100700.63
2023-01-20T13:14:58.650Z,100696.34
2023-01-20T13:17:40.483Z,100703.22
2023-01-20T13:20:26.292Z,100701.50
2023-01-20T13:22:53.779Z,100694.59
2023-01-20T13:25:21.734Z,100695.47
2023-01-20T13:27:51.072Z,100707.59
2023-01-20T13:30:42.983Z,100707.59
2023-01-20T13:33:20.028Z,100704.94
2023-01-20T13:35:49.741Z,100704.06
2023-01-20T13:38:22.706Z,100706.66
2023-01-20T13:40:52.284Z,100712.66
2023-01-20T13:43:27.428Z,100721.25
2023-01-20T13:46:02.920Z,100705.75
2023-01-20T13:49:03.893Z,100713.53
2023-01-20T13:51:50.796Z,100717.84
2023-01-20T13:54:23.901Z,100716.13
2023-01-20T13:56:50.726Z,100716.13
2023-01-20T13:59:17.631Z,100724.75
2023-01-20T14:01:44.209Z,100726.56
2023-01-20T14:04:19.575Z,100721.41
2023-01-20T14:06:51.806Z,100727.47
2023-01-20T14:09:23.502Z,100721.44
2023-01-20T14:11:54.617Z,100730.06
2023-01-20T14:14:24.773Z,100732.59
2023-01-20T14:16:51.854Z,100739.47
2023-01-20T14:19:25.305Z,100742.94
2023-01-20T14:21:54.931Z,100741.22
2023-01-20T14:24:31.125Z,100736.94
2023-01-20T14:27:16.514Z,100748.97
2023-01-20T14:29:43.923Z,100749.00
2023-01-20T14:32:34.334Z,100753.28
2023-01-20T14:35:02.445Z,100756.75
2023-01-20T14:37:35.445Z,100750.69
2023-01-20T14:40:23.906Z,100763.63
2023-01-20T14:43:01.038Z,100761.00
2023-01-20T14:45:32.764Z,100764.34
2023-01-20T14:48:01.813Z,100772.09
2023-01-20T14:50:28.811Z,100773.78
2023-01-20T14:52:56.173Z,100777.22
2023-01-20T14:55:36.623Z,100779.78
2023-01-20T14:58:15.217Z,100794.34
2023-01-20T15:00:44.312Z,100792.63
2023-01-20T15:03:14.259Z,100798.63
2023-01-20T15:06:00.578Z,100797.75
2023-01-20T15:09:04.375Z,100808.94
2023-01-20T15:11:32.573Z,100808.94
2023-01-20T15:14:02.008Z,100808.06
2023-01-20T15:16:41.606Z,100817.50
2023-01-20T15:19:14.512Z,100822.66
2023-01-20T15:21:49.296Z,100822.66
2023-01-20T15:24:24.325Z,100820.88
2023-01-20T15:26:53.741Z,100834.66
2023-01-20T15:29:28.789Z,100839.81
2023-01-20T15:31:58.518Z,100833.78
2023-01-20T15:34:26.139Z,100837.22
2023-01-20T15:36:54.598Z,100844.97
2023-01-20T15:39:23.736Z,100848.38
2023-01-20T15:41:56.970Z,100854.41
2023-01-20T15:44:25.262Z,100863.03
2023-01-20T15:46:53.826Z,100868.19
2023-01-20T15:49:21.803Z,100869.03
2023-01-20T15:51:51.734Z,100873.38
2023-01-20T15:54:18.137Z,100879.38
2023-01-20T15:56:44.653Z,100884.53
2023-01-20T15:59:16.548Z,100889.66
2023-01-20T16:01:46.967Z,100886.19
2023-01-20T16:04:13.542Z,100892.16
2023-01-20T16:06:40.169Z,100896.44
2023-01-20T16:09:38.549Z,100892.09
2023-01-20T16:12:05.187Z,100899.00
2023-01-20T16:14:31.579Z,100903.28
2023-01-20T16:16:58.003Z,100911.00
2023-01-20T16:19:24.505Z,100913.59
2023-01-20T16:21:50.875Z,100908.41
2023-01-20T16:24:17.327Z,100915.22
2023-01-20T16:26:46.770Z,100927.25
2023-01-20T16:29:13.235Z,100925.50
2023-01-20T16:31:39.826Z,100934.97
2023-01-20T16:34:08.005Z,100939.25
2023-01-20T16:36:34.522Z,100942.63
2023-01-20T16:39:00.986Z,100945.16
2023-01-20T16:41:30.647Z,100945.97
2023-01-20T16:43:58.365Z,100944.19
2023-01-20T16:46:27.462Z,100947.56
2023-01-20T16:49:01.811Z,100945.75
2023-01-20T16:51:29.528Z,100953.38
2023-01-20T16:53:56.888Z,100953.19
2023-01-20T16:56:27.697Z,100961.72
2023-01-20T16:58:58.916Z,100961.59
2023-01-20T17:01:26.060Z,100971.88
2023-01-20T17:03:57.333Z,100972.56
2023-01-20T17:06:26.386Z,100980.22
2023-01-20T17:08:54.593Z,100990.50
2023-01-20T17:11:27.081Z,100990.44
2023-01-20T17:13:53.941Z,100993.81
2023-01-20T17:16:21.656Z,100998.03
2023-01-20T17:18:52.474Z,100997.91
2023-01-20T17:21:20.630Z,101005.59
2023-01-20T17:23:55.287Z,101009.91
2023-01-20T17:26:22.484Z,101015.91
2023-01-20T17:28:49.075Z,101015.81
2023-01-20T17:31:15.640Z,101027.63
2023-01-20T17:33:46.355Z,101029.22
2023-01-20T17:36:13.130Z,101029.97
2023-01-20T17:38:42.439Z,101032.63
2023-01-20T17:41:08.941Z,101040.38
2023-01-20T17:43:48.124Z,101038.59
2023-01-20T17:46:20.018Z,101041.06
2023-01-20T17:48:47.105Z,101052.06
2023-01-20T17:51:22.138Z,101058.97
2023-01-20T17:53:49.240Z,101061.44
2023-01-20T17:56:17.075Z,101064.84
2023-01-20T17:58:44.788Z,101070.00
2023-01-20T18:01:15.564Z,101081.06
2023-01-20T18:03:43.389Z,101083.72
2023-01-20T18:06:14.890Z,101089.59
2023-01-20T18:08:42.152Z,101096.53
2023-01-20T18:11:11.408Z,101098.06
2023-01-20T18:13:38.460Z,101092.78
2023-01-20T18:16:07.079Z,101097.06
2023-01-20T18:18:33.712Z,101103.00
2023-01-20T18:21:16.358Z,101104.56
2023-01-20T18:23:43.552Z,101116.53
2023-01-20T18:26:11.789Z,101115.63
2023-01-20T18:28:38.251Z,101113.78
2023-01-20T18:31:13.599Z,101122.28
2023-01-20T18:33:47.421Z,101123.88
2023-01-20T18:36:23.616Z,101123.81
2023-01-20T18:38:58.402Z,101124.50
2023-01-20T18:41:26.548Z,101132.09
2023-01-20T18:43:53.194Z,101131.13
2023-01-20T18:46:20.092Z,101138.03
2023-01-20T18:48:48.859Z,101136.34
2023-01-20T18:51:17.756Z,101138.91
2023-01-20T18:53:45.718Z,101143.13
2023-01-20T18:56:15.220Z,101144.78
2023-01-20T18:58:49.672Z,101147.47
2023-01-20T19:01:19.043Z,101150.94
2023-01-20T19:03:46.801Z,101157.84
2023-01-20T19:06:34.932Z,101159.50
2023-01-20T19:09:01.868Z,101159.38
2023-01-20T19:11:34.396Z,101165.28
2023-01-20T19:14:00.935Z,101169.56
2023-01-20T19:16:33.686Z,101176.31
2023-01-20T19:19:02.418Z,101172.16
2023-01-20T19:21:33.285Z,101184.97
2023-01-20T19:24:05.733Z,101186.59
2023-01-20T19:26:35.523Z,101191.66
2023-01-20T19:29:11.778Z,101194.25
2023-01-20T19:31:40.070Z,101201.03
2023-01-20T19:34:07.854Z,101202.59
2023-01-20T19:36:35.074Z,101207.84
2023-01-20T19:39:01.574Z,101212.06
2023-01-20T19:41:34.269Z,101208.72
2023-01-20T19:44:03.099Z,101212.84
2023-01-20T19:46:31.973Z,101220.50
2023-01-20T19:48:59.679Z,101225.56
2023-01-20T19:51:26.903Z,101227.31
2023-01-20T19:53:57.781Z,101228.16
2023-01-20T19:56:25.965Z,101231.63
2023-01-20T19:58:54.207Z,101236.66
2023-01-20T20:01:25.732Z,101245.16
2023-01-20T20:03:54.260Z,101243.47
2023-01-20T20:06:32.072Z,101257.31
2023-01-20T20:09:19.286Z,101260.78
2023-01-20T20:11:47.313Z,101261.59
2023-01-20T20:14:16.573Z,101267.50
2023-01-20T20:16:43.129Z,101269.16
2023-01-20T20:19:12.228Z,101264.97
2023-01-20T20:21:38.773Z,101272.63
2023-01-20T20:24:05.719Z,101279.41
2023-01-20T20:26:35.182Z,101285.31
2023-01-20T20:29:03.445Z,101286.25
2023-01-20T20:31:30.079Z,101295.75
2023-01-20T20:33:58.927Z,101291.25
2023-01-20T20:36:28.312Z,101294.78
2023-01-20T20:38:55.043Z,101300.81
2023-01-20T20:41:22.299Z,101309.34
2023-01-20T20:43:48.746Z,101309.28
2023-01-20T20:46:16.403Z,101313.50
2023-01-20T20:48:43.111Z,101321.22
2023-01-20T20:51:14.891Z,101317.78
2023-01-20T20:53:42.339Z,101325.50
2023-01-20T20:56:11.268Z,101328.06
2023-01-20T20:58:51.614Z,101343.56
2023-01-20T21:01:25.584Z,101338.44
2023-01-20T21:03:52.067Z,101342.72
2023-01-20T21:06:18.577Z,101346.16
2023-01-20T21:08:45.043Z,101352.16
2023-01-20T21:11:13.420Z,101358.25
2023-01-20T21:13:41.922Z,101364.97
2023-01-20T21:16:11.627Z,101365.88
2023-01-20T21:18:39.177Z,101372.72
2023-01-20T21:21:08.441Z,101372.72
2023-01-20T21:23:35.383Z,101378.69
2023-01-20T21:26:09.250Z,101377.88
2023-01-20T21:28:36.418Z,101382.81
2023-01-20T21:31:07.528Z,101384.53
2023-01-20T21:33:33.978Z,101388.03
2023-01-20T21:36:03.962Z,101386.22
2023-01-20T21:38:31.427Z,101397.38
2023-01-20T21:41:03.827Z,101399.13
2023-01-20T21:43:49.873Z,101403.28
2023-01-20T21:46:16.713Z,101401.53
2023-01-20T21:49:01.629Z,101401.53
2023-01-20T21:51:47.106Z,101404.09
2023-01-20T21:54:13.718Z,101409.16
2023-01-20T21:56:40.251Z,101421.22
2023-01-20T21:59:07.719Z,101426.31
2023-01-20T22:01:34.875Z,101426.28
2023-01-20T22:04:01.685Z,101433.00
2023-01-20T22:06:28.276Z,101431.28
2023-01-20T22:08:54.823Z,101433.00
2023-01-20T22:11:21.802Z,101452.63
2023-01-20T22:13:48.226Z,101458.59
2023-01-20T22:16:14.666Z,101460.19
2023-01-20T22:18:45.407Z,101458.56
2023-01-20T22:21:12.038Z,101462.81
2023-01-20T22:23:38.960Z,101467.09
2023-01-20T22:26:05.727Z,101475.53
2023-01-20T22:28:39.580Z,101477.19
2023-01-20T22:31:08.264Z,101486.34
2023-01-20T22:33:34.901Z,101485.38
2023-01-20T22:36:02.139Z,101483.69
2023-01-20T22:38:29.033Z,101494.78
2023-01-20T22:40:55.613Z,101492.22
2023-01-20T22:43:22.085Z,101497.38
2023-01-20T22:45:48.772Z,101502.50
2023-01-20T22:48:15.271Z,101513.84
2023-01-20T22:50:41.678Z,101512.03
2023-01-20T22:53:08.147Z,101505.19
2023-01-20T22:55:34.615Z,101518.00
2023-01-20T22:58:01.071Z,101528.28
2023-01-20T23:00:27.580Z,101522.31
2023-01-20T23:02:53.983Z,101523.47
2023-01-20T23:05:20.432Z,101525.09
2023-01-20T23:07:46.847Z,101530.47
2023-01-20T23:10:33.323Z,101533.88
2023-01-20T23:12:59.852Z,101533.88
2023-01-20T23:15:26.361Z,101540.78
2023-01-20T23:17:52.845Z,101540.72
2023-01-20T23:20:19.377Z,101538.19
2023-01-20T23:22:45.910Z,101540.66
2023-01-20T23:25:12.451Z,101547.41
2023-01-20T23:27:38.933Z,101542.09
2023-01-20T23:30:06.090Z,101546.41
2023-01-20T23:32:32.528Z,101546.16
2023-01-20T23:34:58.968Z,101559.22
2023-01-20T23:37:25.426Z,101562.66
2023-01-20T23:39:52.935Z,101563.50
2023-01-20T23:42:19.492Z,101563.53
2023-01-20T23:44:45.918Z,101572.84
2023-01-20T23:47:12.386Z,101574.38
2023-01-20T23:49:38.918Z,101584.56
2023-01-20T23:52:06.108Z,101585.53
2023-01-20T23:54:32.515Z,101590.75
2023-01-20T23:56:58.970Z,101598.28
2023-01-20T23:59:25.465Z,101597.41
